Time;durP1;ratioP1;P1;durP2;ratioP2;P2;SDS_P1;SDS_P2;PMS_P1;PMS_P2;Temp;Humidity;BMP_temperature;BMP_pressure;BME280_temperature;BME280_humidity;BME280_pressure;Samples;Min_cycle;Max_cycle;Signal;HPM_P1;HPM_P2
2023/08/07 00:01:48;;;;;;;11.68;3.45;;;;;;;25.32;100.00;100482.72;20866742;28;20061;-68
2023/08/07 00:12:14;;;;;;;10.63;3.15;;;;;;;25.24;100.00;100481.31;20885145;28;20130;-68
2023/08/07 00:22:37;;;;;;;11.02;2.80;;;;;;;25.05;100.00;100475.94;20855410;28;20098;-68
2023/08/07 00:33:01;;;;;;;11.88;2.92;;;;;;;25.02;100.00;100467.97;20904031;28;20052;-68
2023/08/07 00:43:04;;;;;;;11.30;2.90;;;;;;;24.90;100.00;100485.66;20902805;28;20049;-69
2023/08/07 00:53:27;;;;;;;13.10;3.38;;;;;;;24.85;100.00;100481.41;20896293;28;20843;-69
2023/08/07 01:03:50;;;;;;;10.02;3.25;;;;;;;24.73;100.00;100485.56;20891285;28;20045;-69
2023/08/07 01:14:26;;;;;;;12.50;3.17;;;;;;;24.70;100.00;100485.69;20880274;28;20037;-69
2023/08/07 01:24:52;;;;;;;10.90;2.67;;;;;;;24.55;100.00;100487.28;20900108;28;20053;-68
2023/08/07 01:35:21;;;;;;;9.38;2.70;;;;;;;24.55;100.00;100478.31;20899757;28;20393;-68
2023/08/07 01:45:45;;;;;;;;;;;;;;;24.42;100.00;100477.13;20855758;28;20048;-69
2023/08/07 01:55:54;;;;;;;9.90;2.45;;;;;;;24.29;100.00;100467.84;20892430;28;19931;-68
2023/08/07 02:06:02;;;;;;;8.27;2.03;;;;;;;24.21;100.00;100474.50;20890575;28;20041;-69
2023/08/07 02:16:25;;;;;;;8.40;2.30;;;;;;;24.18;100.00;100479.97;20877074;28;20080;-68
2023/08/07 02:26:49;;;;;;;10.38;2.13;;;;;;;23.89;100.00;100477.72;20857383;28;20045;-68
2023/08/07 02:37:11;;;;;;;8.52;1.98;;;;;;;24.05;100.00;100483.28;20872974;28;20052;-68
2023/08/07 02:47:35;;;;;;;7.68;2.33;;;;;;;23.97;100.00;100493.53;20888840;28;20091;-69
2023/08/07 02:57:58;;;;;;;7.55;1.85;;;;;;;23.95;100.00;100498.13;20889070;28;20057;-69
2023/08/07 03:08:22;;;;;;;9.75;2.15;;;;;;;23.94;100.00;100509.84;20865677;28;20045;-69
2023/08/07 03:18:24;;;;;;;8.90;1.70;;;;;;;23.89;100.00;100503.78;20875791;28;20560;-69
2023/08/07 03:28:48;;;;;;;8.80;1.75;;;;;;;23.82;100.00;100505.88;20897620;28;20045;-68
2023/08/07 03:39:12;;;;;;;7.50;1.63;;;;;;;23.77;100.00;100500.66;20873485;28;20052;-67
2023/08/07 03:49:36;;;;;;;8.57;1.48;;;;;;;23.60;100.00;100518.50;20886741;28;20057;-68
2023/08/07 03:59:59;;;;;;;9.18;1.65;;;;;;;24.09;100.00;100518.13;20881170;28;20691;-68
2023/08/07 04:10:26;;;;;;;6.60;1.50;;;;;;;24.52;100.00;100530.63;20896268;28;20063;-69
2023/08/07 04:20:51;;;;;;;6.88;1.27;;;;;;;25.05;100.00;100516.47;20883504;28;20052;-69
2023/08/07 04:31:15;;;;;;;6.68;1.23;;;;;;;25.54;100.00;100517.63;20881418;28;20045;-69
2023/08/07 04:41:37;;;;;;;7.35;1.20;;;;;;;26.01;100.00;100512.53;20888053;28;20055;-67
2023/08/07 04:52:01;;;;;;;7.72;1.10;;;;;;;26.54;100.00;100519.66;20894278;28;20094;-68
2023/08/07 05:02:24;;;;;;;5.80;0.82;;;;;;;27.17;100.00;100530.66;20881889;28;20049;-67
2023/08/07 05:12:54;;;;;;;6.75;1.08;;;;;;;28.09;100.00;100535.19;20888173;28;20056;-69
2023/08/07 05:23:17;;;;;;;6.32;1.38;;;;;;;28.87;98.58;100539.41;20893711;28;20049;-68
2023/08/07 05:33:42;;;;;;;5.40;1.00;;;;;;;30.00;81.64;100546.41;20895024;28;20045;-69
2023/08/07 05:44:05;;;;;;;8.43;1.27;;;;;;;31.19;64.47;100541.59;20888060;28;20390;-69
2023/08/07 05:54:29;;;;;;;5.95;1.10;;;;;;;32.16;53.05;100539.72;20874341;28;20041;-69
2023/08/07 06:04:52;;;;;;;5.22;1.10;;;;;;;32.91;50.13;100541.94;20871359;28;20060;-69
2023/08/07 06:14:56;;;;;;;4.47;1.00;;;;;;;33.39;48.72;100543.44;20878430;28;20056;-69
2023/08/07 06:25:19;;;;;;;5.68;1.10;;;;;;;33.95;46.44;100535.06;20889908;28;20076;-69
2023/08/07 06:35:43;;;;;;;6.95;1.02;;;;;;;34.48;43.65;100535.94;20890107;28;20132;-69
2023/08/07 06:46:06;;;;;;;4.97;1.27;;;;;;;34.46;44.31;100537.97;20879281;28;20048;-69
2023/08/07 06:56:31;;;;;;;5.28;1.10;;;;;;;34.63;44.79;100541.94;20894652;28;20045;-69
2023/08/07 07:06:53;;;;;;;9.00;1.55;;;;;;;34.66;44.35;100545.25;20855296;28;20059;-69
2023/08/07 07:16:57;;;;;;;4.55;1.02;;;;;;;34.85;42.60;100546.44;20890171;28;20045;-69
2023/08/07 07:27:19;;;;;;;7.77;0.93;;;;;;;35.06;42.68;100536.25;20875958;28;20079;-69
2023/08/07 07:37:44;;;;;;;3.10;0.98;;;;;;;35.23;41.49;100541.13;20901676;28;20052;-69
2023/08/07 07:48:07;;;;;;;;;;;;;;;35.80;36.97;100534.91;20892031;28;20056;-69
2023/08/07 07:58:32;;;;;;;5.28;1.05;;;;;;;35.90;38.45;100540.41;20901800;28;19924;-69
2023/08/07 08:08:54;;;;;;;6.45;1.27;;;;;;;36.05;39.02;100538.06;20900916;28;20068;-71
2023/08/07 08:18:58;;;;;;;4.55;0.90;;;;;;;35.79;39.98;100535.03;20902785;28;20055;-71
2023/08/07 08:29:21;;;;;;;7.38;1.58;;;;;;;36.15;40.43;100544.44;20882931;28;20052;-70
2023/08/07 08:39:46;;;;;;;7.20;1.30;;;;;;;36.58;41.36;100539.34;20894008;28;20056;-69
2023/08/07 08:50:11;;;;;;;10.35;1.13;;;;;;;36.66;41.48;100541.38;20884427;28;20440;-71
2023/08/07 09:00:37;;;;;;;3.80;0.73;;;;;;;36.98;41.71;100543.72;20896103;28;20618;-70
2023/08/07 09:11:00;;;;;;;5.32;0.93;;;;;;;37.08;41.95;100558.34;20890912;28;20110;-69
2023/08/07 09:21:24;;;;;;;6.53;1.20;;;;;;;37.15;41.36;100542.09;20892178;28;20107;-71
2023/08/07 09:31:46;;;;;;;;;;;;;;;37.70;40.88;100535.53;20910979;28;20419;-69
2023/08/07 09:42:17;;;;;;;6.95;1.08;;;;;;;37.89;41.19;100537.28;20909309;28;19921;-69
2023/08/07 09:52:41;;;;;;;6.68;1.10;;;;;;;37.96;41.54;100537.50;20894014;28;20068;-70
2023/08/07 10:02:46;;;;;;;9.80;1.50;;;;;;;37.95;42.74;100538.53;20897333;28;20067;-69
2023/08/07 10:13:09;;;;;;;7.43;1.30;;;;;;;38.01;41.82;100543.44;20895778;28;20098;-69
2023/08/07 10:23:35;;;;;;;;;;;;;;;37.69;41.93;100530.19;20894880;28;20740;-70
2023/08/07 10:33:58;;;;;;;7.05;1.23;;;;;;;37.46;42.78;100524.22;20880054;28;19995;-69
2023/08/07 10:44:24;;;;;;;9.93;1.48;;;;;;;37.29;43.19;100533.31;20891537;28;20048;-69
2023/08/07 10:54:47;;;;;;;6.63;1.20;;;;;;;36.81;43.68;100542.66;20876829;28;20516;-69
2023/08/07 11:05:11;;;;;;;7.80;1.33;;;;;;;37.18;43.38;100542.66;20892026;28;20044;-69
2023/08/07 11:15:34;;;;;;;5.22;1.00;;;;;;;36.96;43.54;100554.88;20876493;28;20464;-69
2023/08/07 11:26:00;;;;;;;5.43;1.10;;;;;;;36.93;44.39;100552.44;20883006;28;20043;-69
2023/08/07 11:36:23;;;;;;;7.90;1.50;;;;;;;36.65;46.72;100551.53;20875001;28;20140;-69
2023/08/07 11:46:49;;;;;;;7.47;1.27;;;;;;;37.00;46.93;100553.59;20884912;28;20048;-70
2023/08/07 11:57:17;;;;;;;6.38;1.17;;;;;;;37.03;46.79;100539.50;20865187;28;20080;-70
2023/08/07 12:07:41;;;;;;;5.47;1.13;;;;;;;36.51;49.40;100542.81;20873532;28;20055;-69
2023/08/07 12:18:04;;;;;;;9.05;1.63;;;;;;;36.15;50.60;100538.94;20857964;28;20107;-69
2023/08/07 12:28:28;;;;;;;6.18;1.42;;;;;;;36.14;48.53;100531.72;20883487;28;20057;-69
2023/08/07 12:38:50;;;;;;;6.10;1.10;;;;;;;36.22;47.94;100523.63;20867566;28;20614;-70
2023/08/07 12:49:16;;;;;;;8.07;0.90;;;;;;;36.47;46.39;100534.00;20865167;28;20052;-70
2023/08/07 12:59:39;;;;;;;6.18;1.35;;;;;;;36.39;47.36;100533.88;20889001;28;20049;-69
2023/08/07 13:10:03;;;;;;;5.55;1.15;;;;;;;36.40;47.56;100529.25;20867759;28;20142;-71
2023/08/07 13:20:26;;;;;;;5.68;1.67;;;;;;;36.09;47.72;100525.78;20858375;28;20088;-71
2023/08/07 13:30:53;;;;;;;7.60;1.15;;;;;;;35.82;50.08;100521.88;20872551;28;20080;-70
2023/08/07 13:41:16;;;;;;;4.57;1.00;;;;;;;35.37;52.45;100516.03;20868429;28;20048;-70
2023/08/07 13:51:40;;;;;;;5.53;1.10;;;;;;;34.98;53.69;100515.00;20885296;28;20053;-70
2023/08/07 14:02:02;;;;;;;6.88;1.20;;;;;;;34.86;56.37;100513.34;20879335;28;20574;-70
2023/08/07 14:12:27;;;;;;;5.30;1.20;;;;;;;34.65;58.25;100512.50;20866778;28;20064;-70
2023/08/07 14:22:50;;;;;;;5.97;1.23;;;;;;;34.88;57.66;100504.97;20848979;28;20143;-69
2023/08/07 14:33:14;;;;;;;5.00;1.15;;;;;;;35.28;57.50;100514.09;20872278;28;20132;-70
2023/08/07 14:43:36;;;;;;;7.97;1.10;;;;;;;35.20;59.93;100502.91;20891758;28;20098;-70
2023/08/07 14:54:00;;;;;;;6.85;1.35;;;;;;;35.36;57.39;100496.94;20886566;28;20053;-71
2023/08/07 15:04:23;;;;;;;8.55;1.33;;;;;;;34.60;55.41;100517.50;20887822;28;20553;-69
2023/08/07 15:14:47;;;;;;;10.27;1.55;;;;;;;33.88;60.92;100511.94;20861845;28;20080;-71
2023/08/07 15:25:11;;;;;;;7.40;1.65;;;;;;;33.09;65.25;100511.22;20876508;28;20052;-69
2023/08/07 15:35:34;;;;;;;11.02;1.85;;;;;;;31.69;90.55;100510.56;20851500;28;20115;-69
2023/08/07 15:45:57;;;;;;;6.82;1.70;;;;;;;30.94;100.00;100497.97;20863659;28;20099;-71
2023/08/07 15:56:22;;;;;;;11.27;2.45;;;;;;;30.95;100.00;100503.31;20893410;28;20573;-70
2023/08/07 16:06:45;;;;;;;7.13;1.40;;;;;;;30.93;100.00;100502.56;20901538;28;20099;-73
2023/08/07 16:17:09;;;;;;;7.28;1.30;;;;;;;30.78;100.00;100506.41;20884666;28;20045;-72
2023/08/07 16:27:32;;;;;;;8.30;1.55;;;;;;;30.59;100.00;100498.66;20892382;28;20076;-72
2023/08/07 16:37:57;;;;;;;6.32;1.63;;;;;;;30.42;100.00;100504.44;20878104;28;20044;-72
2023/08/07 16:48:19;;;;;;;4.50;1.33;;;;;;;30.21;100.00;100508.66;20882037;28;20052;-72
2023/08/07 16:58:44;;;;;;;11.20;1.40;;;;;;;29.97;100.00;100501.22;20894174;28;20045;-72
2023/08/07 17:09:07;;;;;;;10.40;2.25;;;;;;;29.78;100.00;100518.91;20902385;28;20045;-72
2023/08/07 17:19:31;;;;;;;7.28;1.88;;;;;;;29.60;100.00;100526.47;20897461;28;20388;-71
2023/08/07 17:29:54;;;;;;;9.50;1.92;;;;;;;29.42;100.00;100525.81;20881777;28;20044;-72
2023/08/07 17:40:18;;;;;;;7.72;1.60;;;;;;;29.28;100.00;100532.13;20893431;28;20700;-73
2023/08/07 17:50:41;;;;;;;8.43;1.83;;;;;;;29.05;100.00;100534.63;20898178;28;20666;-72
2023/08/07 18:01:05;;;;;;;7.03;1.60;;;;;;;28.88;100.00;100547.44;20865119;28;20053;-72
2023/08/07 18:11:28;;;;;;;5.80;1.27;;;;;;;28.75;100.00;100553.78;20860390;28;20050;-71
2023/08/07 18:21:52;;;;;;;12.98;1.80;;;;;;;28.58;100.00;100551.19;20883587;28;20053;-71
2023/08/07 18:32:14;;;;;;;10.07;2.08;;;;;;;28.42;100.00;100557.56;20879499;28;20049;-71
2023/08/07 18:42:39;;;;;;;8.50;1.70;;;;;;;28.28;100.00;100560.28;20883063;28;20056;-71
2023/08/07 18:53:02;;;;;;;10.48;1.80;;;;;;;28.06;100.00;100568.81;20872327;28;20041;-71
2023/08/07 19:03:27;;;;;;;8.40;1.85;;;;;;;27.81;100.00;100563.09;20874096;28;20041;-71
2023/08/07 19:13:49;;;;;;;7.25;1.58;;;;;;;27.73;100.00;100573.50;20875130;28;20049;-71
2023/08/07 19:24:06;;;;;;;7.72;1.88;;;;;;;27.61;100.00;100560.66;20886256;28;20606;-71
2023/08/07 19:34:29;;;;;;;6.47;1.45;;;;;;;27.46;100.00;100564.22;20887676;28;20099;-71
2023/08/07 19:44:53;;;;;;;9.13;1.50;;;;;;;27.28;100.00;100563.44;20880398;28;20685;-71
2023/08/07 19:55:16;;;;;;;7.45;1.50;;;;;;;27.14;100.00;100560.63;20868995;28;20115;-71
2023/08/07 20:05:40;;;;;;;4.63;1.20;;;;;;;27.06;100.00;100557.47;20863944;28;20552;-71
2023/08/07 20:16:04;;;;;;;6.18;1.70;;;;;;;26.92;100.00;100550.97;20863509;28;20056;-71
2023/08/07 20:26:27;;;;;;;5.93;1.60;;;;;;;26.80;100.00;100548.03;20873636;28;20084;-71
2023/08/07 20:36:49;;;;;;;4.90;1.52;;;;;;;26.68;100.00;100555.00;20863773;28;20048;-71
2023/08/07 20:47:15;;;;;;;7.53;1.48;;;;;;;26.61;100.00;100552.72;20892916;28;20045;-71
2023/08/07 20:57:37;;;;;;;6.60;1.73;;;;;;;26.51;100.00;100560.47;20899443;28;20056;-70
2023/08/07 21:08:01;;;;;;;5.35;1.70;;;;;;;26.38;100.00;100545.84;20885044;28;20087;-71
2023/08/07 21:18:24;;;;;;;6.85;1.60;;;;;;;26.31;100.00;100549.81;20911325;28;20052;-71
2023/08/07 21:28:44;;;;;;;4.97;1.75;;;;;;;26.19;100.00;100541.34;20896249;28;20052;-70
2023/08/07 21:39:06;;;;;;;7.25;1.80;;;;;;;26.05;100.00;100534.91;20897825;28;20072;-70
2023/08/07 21:49:31;;;;;;;6.05;1.58;;;;;;;25.92;100.00;100531.09;20882126;28;20144;-71
2023/08/07 21:59:53;;;;;;;6.65;1.80;;;;;;;25.67;100.00;100526.03;20877119;28;20048;-70
2023/08/07 22:10:18;;;;;;;7.80;2.10;;;;;;;25.61;100.00;100518.22;20890126;28;20052;-71
2023/08/07 22:20:42;;;;;;;7.50;2.35;;;;;;;25.38;100.00;100520.25;20876392;28;20045;-71
2023/08/07 22:31:07;;;;;;;4.65;1.60;;;;;;;25.30;100.00;100517.03;20873056;28;20041;-71
2023/08/07 22:41:32;;;;;;;6.30;1.48;;;;;;;25.13;100.00;100514.28;20909851;28;20097;-70
2023/08/07 22:51:56;;;;;;;7.05;1.38;;;;;;;25.03;100.00;100507.56;20859939;28;20573;-70
2023/08/07 23:02:18;;;;;;;9.32;1.70;;;;;;;24.91;100.00;100508.16;20833397;28;20061;-70
2023/08/07 23:12:43;;;;;;;7.20;1.58;;;;;;;24.85;100.00;100495.78;20893075;28;20107;-70
2023/08/07 23:23:06;;;;;;;4.88;1.55;;;;;;;24.90;100.00;100490.19;20885311;28;20695;-70
2023/08/07 23:33:31;;;;;;;4.65;1.65;;;;;;;24.95;100.00;100475.50;20887284;28;20063;-70
2023/08/07 23:43:53;;;;;;;7.78;2.05;;;;;;;25.00;100.00;100476.19;20888494;28;20053;-71
2023/08/07 23:54:17;;;;;;;10.50;1.73;;;;;;;25.08;100.00;100478.47;20883504;28;20045;-70
